Time;durP1;ratioP1;P1;durP2;ratioP2;P2;SDS_P1;SDS_P2;PMS_P1;PMS_P2;Temp;Humidity;BMP_temperature;BMP_pressure;BME280_temperature;BME280_humidity;BME280_pressure;Samples;Min_cycle;Max_cycle;Signal;HPM_P1;HPM_P2
2022/07/14 00:00:37;;;;;;;5.47;3.00;;;;;;;16.39;59.32;99209.75;4976330;28;20194;-84
2022/07/14 00:03:02;;;;;;;5.40;3.00;;;;;;;17.94;59.00;99451.09;4994543;28;20618;-84
2022/07/14 00:05:28;;;;;;;4.00;3.10;;;;;;;18.06;58.27;99486.28;4994099;28;20162;-83
2022/07/14 00:07:54;;;;;;;4.30;2.90;;;;;;;17.57;57.50;99356.66;4993440;28;20624;-84
2022/07/14 00:10:19;;;;;;;6.63;2.80;;;;;;;16.83;56.71;99233.50;4993856;28;20243;-81
2022/07/14 00:12:44;;;;;;;3.47;2.73;;;;;;;19.09;56.09;99580.94;4993516;28;20167;-85
2022/07/14 00:15:10;;;;;;;3.00;2.70;;;;;;;19.18;55.42;99591.31;4992864;28;20190;-84
2022/07/14 00:17:35;;;;;;;2.70;2.50;;;;;;;17.09;54.87;99252.66;4993368;28;20233;-83
2022/07/14 00:20:01;;;;;;;2.80;2.50;;;;;;;18.61;54.41;99462.31;4993282;28;20194;-85
2022/07/14 00:22:27;;;;;;;6.40;2.90;;;;;;;16.21;54.46;99075.69;4993617;28;20250;-84
2022/07/14 00:24:52;;;;;;;3.33;2.67;;;;;;;17.70;53.69;99304.78;4993519;28;20155;-84
2022/07/14 00:27:17;;;;;;;2.97;2.67;;;;;;;18.00;53.98;99343.59;4993163;28;20179;-84
2022/07/14 00:29:43;;;;;;;3.60;2.57;;;;;;;18.97;53.85;99518.34;4995289;28;20155;-85
2022/07/14 00:32:08;;;;;;;3.43;2.60;;;;;;;19.29;54.37;99589.75;4995703;28;20218;-84
2022/07/14 00:34:34;;;;;;;3.70;2.60;;;;;;;19.30;54.63;99585.47;4994161;28;20155;-85
2022/07/14 00:36:59;;;;;;;3.00;2.70;;;;;;;18.62;54.41;99464.06;4993216;28;20210;-84
2022/07/14 00:39:26;;;;;;;4.83;2.70;;;;;;;18.58;54.81;99460.59;4993288;28;20191;-85
2022/07/14 00:41:51;;;;;;;3.03;2.47;;;;;;;17.24;54.83;99240.94;4993191;28;20523;-84
2022/07/14 00:44:17;;;;;;;3.17;2.60;;;;;;;16.36;55.28;99092.16;4993844;28;20195;-84
2022/07/14 00:46:42;;;;;;;2.90;2.53;;;;;;;17.99;55.27;99408.47;4995065;28;20305;-84
2022/07/14 00:49:08;;;;;;;4.20;2.70;;;;;;;18.47;55.04;99462.13;4995768;28;20251;-84
2022/07/14 00:51:33;;;;;;;5.03;2.60;;;;;;;16.43;54.93;99131.41;4998989;28;20273;-81
2022/07/14 00:53:59;;;;;;;3.20;2.50;;;;;;;16.25;55.32;99110.69;4995504;28;20172;-84
2022/07/14 00:56:26;;;;;;;2.97;2.63;;;;;;;16.34;55.63;99110.84;4994522;28;20620;-84
2022/07/14 00:58:51;;;;;;;3.33;2.60;;;;;;;17.45;56.55;99348.75;4995305;28;20191;-84
2022/07/14 01:01:17;;;;;;;3.13;2.70;;;;;;;17.30;56.55;99320.38;4992486;28;20574;-85
2022/07/14 01:03:42;;;;;;;5.33;2.90;;;;;;;18.10;56.74;99445.34;4992287;28;20238;-84
2022/07/14 01:06:07;;;;;;;3.60;2.83;;;;;;;19.01;57.02;99586.84;4991446;28;20171;-85
2022/07/14 01:08:33;;;;;;;3.63;3.10;;;;;;;18.17;57.45;99452.31;4992291;28;20163;-85
2022/07/14 01:10:58;;;;;;;5.20;3.27;;;;;;;15.96;58.28;99127.22;4992516;28;20176;-84
2022/07/14 01:13:24;;;;;;;4.83;3.10;;;;;;;15.82;59.51;99135.47;4992650;28;20175;-84
2022/07/14 01:15:49;;;;;;;7.47;3.53;;;;;;;17.16;60.08;99342.31;4974756;28;20592;-84
2022/07/14 01:18:15;;;;;;;4.67;3.20;;;;;;;18.35;60.39;99566.19;4991943;28;20170;-84
2022/07/14 01:20:41;;;;;;;6.40;3.57;;;;;;;17.87;59.94;99459.53;4992248;28;20242;-84
2022/07/14 01:23:07;;;;;;;4.90;3.63;;;;;;;17.04;60.54;99323.34;4992297;28;20155;-85
2022/07/14 01:25:33;;;;;;;5.77;3.57;;;;;;;18.58;61.18;99587.94;4992535;28;20167;-85
2022/07/14 01:27:59;;;;;;;3.73;3.20;;;;;;;16.57;60.77;99274.78;4996104;28;20230;-85
2022/07/14 01:30:24;;;;;;;4.83;3.13;;;;;;;17.68;61.14;99442.16;4996522;28;20206;-84
2022/07/14 01:32:50;;;;;;;4.40;3.20;;;;;;;15.62;60.54;99100.22;4996539;28;20698;-83
2022/07/14 01:35:15;;;;;;;5.37;3.60;;;;;;;17.73;60.57;99455.91;5007279;28;20227;-84
2022/07/14 01:37:41;;;;;;;4.27;2.90;;;;;;;17.89;59.61;99465.53;5016880;28;20159;-84
2022/07/14 01:40:07;;;;;;;3.83;2.90;;;;;;;16.38;59.04;99200.34;5012237;28;20195;-85
2022/07/14 01:42:32;;;;;;;3.80;3.00;;;;;;;17.73;58.46;99434.53;4996575;28;20627;-85
2022/07/14 01:44:58;;;;;;;6.37;2.97;;;;;;;18.69;58.29;99579.56;4996458;28;20207;-85
2022/07/14 01:47:25;;;;;;;3.77;3.00;;;;;;;16.04;57.58;99108.63;4994759;28;20317;-85
2022/07/14 01:49:50;;;;;;;2.80;2.60;;;;;;;17.01;56.94;99276.41;4996213;28;20159;-85
2022/07/14 01:52:15;;;;;;;5.13;3.27;;;;;;;18.50;57.13;99515.16;4996157;28;20167;-84
2022/07/14 01:54:41;;;;;;;5.40;3.20;;;;;;;17.21;57.11;99300.59;4996183;28;20168;-85
2022/07/14 01:57:06;;;;;;;3.30;3.00;;;;;;;18.51;57.22;99524.59;4995817;28;20172;-83
2022/07/14 01:59:32;;;;;;;3.40;3.10;;;;;;;18.12;57.67;99458.22;4995633;28;20235;-84
2022/07/14 02:01:58;;;;;;;3.27;2.97;;;;;;;15.42;57.46;99009.66;4995626;28;20163;-84
2022/07/14 02:04:23;;;;;;;4.63;3.00;;;;;;;18.23;57.18;99464.34;4995584;28;20163;-84
2022/07/14 02:06:52;;;;;;;3.57;2.90;;;;;;;18.18;57.32;99510.38;4995839;28;20242;-84
2022/07/14 02:09:19;;;;;;;3.10;2.67;;;;;;;15.63;56.32;99030.50;4995607;28;20213;-84
2022/07/14 02:14:30;;;;;;;5.17;2.97;;;;;;;18.19;56.40;99468.56;4995653;28;20239;-84
2022/07/14 02:16:55;;;;;;;3.93;2.90;;;;;;;18.88;56.05;99559.28;4995501;28;20170;-84
2022/07/14 02:19:23;;;;;;;3.53;2.90;;;;;;;18.40;56.05;99508.16;4995384;28;20195;-84
2022/07/14 02:21:50;;;;;;;3.70;2.87;;;;;;;18.10;55.64;99453.03;4995317;28;20167;-83
2022/07/14 02:24:15;;;;;;;3.90;2.90;;;;;;;16.24;55.53;99119.19;4995001;28;20547;-84
2022/07/14 02:26:41;;;;;;;5.60;2.97;;;;;;;16.25;55.29;99110.69;4978018;28;20167;-86
2022/07/14 02:29:07;;;;;;;3.53;3.20;;;;;;;18.26;54.90;99457.56;4995497;28;20195;-84
2022/07/14 02:31:34;;;;;;;5.03;3.03;;;;;;;19.17;55.01;99599.84;4995058;28;20156;-86
2022/07/14 02:34:00;;;;;;;6.77;3.03;;;;;;;18.83;54.85;99523.31;4995138;28;20176;-84
2022/07/14 02:36:25;;;;;;;6.17;3.37;;;;;;;17.11;55.21;99250.16;4994702;28;20171;-85
2022/07/14 02:38:51;;;;;;;6.63;3.90;;;;;;;17.18;55.17;99264.75;4994697;28;21156;-83
2022/07/14 02:41:17;;;;;;;3.63;3.07;;;;;;;15.50;55.08;98988.56;4994701;28;20171;-85
2022/07/14 02:43:42;;;;;;;6.17;3.27;;;;;;;19.07;55.56;99605.72;4994729;28;20171;-84
2022/07/14 02:46:08;;;;;;;5.00;3.00;;;;;;;18.67;55.63;99529.09;4994355;28;20700;-84
2022/07/14 02:48:33;;;;;;;3.73;2.90;;;;;;;17.36;55.73;99298.28;4995117;28;20170;-84
2022/07/14 02:51:04;;;;;;;6.50;4.10;;;;;;;18.59;55.76;99507.59;4994946;28;20163;-83
2022/07/14 02:53:29;;;;;;;4.50;2.90;;;;;;;18.90;55.60;99602.06;4994712;28;20159;-83
2022/07/14 02:55:55;;;;;;;3.93;3.00;;;;;;;18.62;55.64;99548.69;4977358;28;20175;-85
2022/07/14 02:58:23;;;;;;;4.20;3.10;;;;;;;18.89;55.69;99602.06;4994637;28;20168;-84
2022/07/14 03:00:49;;;;;;;5.03;3.13;;;;;;;15.58;55.55;99035.50;4994892;28;20686;-86
2022/07/14 03:03:15;;;;;;;4.17;3.50;;;;;;;18.37;55.60;99541.44;4994861;28;20214;-86
2022/07/14 03:05:40;;;;;;;3.77;3.00;;;;;;;16.85;55.65;99303.44;4994700;28;20243;-87
2022/07/14 03:08:05;;;;;;;5.03;3.20;;;;;;;18.09;55.42;99489.78;4977071;28;20193;-86
2022/07/14 03:10:31;;;;;;;4.57;3.70;;;;;;;18.81;55.99;99617.34;4994563;28;20182;-86
2022/07/14 03:12:57;;;;;;;6.80;4.47;;;;;;;17.94;56.31;99492.09;4996569;28;20167;-86
2022/07/14 03:15:22;;;;;;;9.37;5.27;;;;;;;18.04;56.07;99506.78;4994573;28;20160;-87
2022/07/14 03:17:48;;;;;;;13.30;5.03;;;;;;;18.79;56.85;99637.84;4994493;28;20171;-86
2022/07/14 03:20:13;;;;;;;10.43;5.10;;;;;;;18.82;57.35;99616.50;4995483;28;20191;-87
2022/07/14 03:22:39;;;;;;;10.03;4.87;;;;;;;18.01;57.42;99499.03;4994661;28;20594;-87
2022/07/14 03:25:08;;;;;;;12.17;5.40;;;;;;;18.84;57.24;99638.75;4994955;28;20171;-86
2022/07/14 03:27:35;;;;;;;13.77;6.10;;;;;;;17.53;57.77;99455.56;4994351;28;20706;-85
2022/07/14 03:30:02;;;;;;;11.67;6.10;;;;;;;18.52;58.41;99613.47;4995261;28;20159;-85
2022/07/14 03:32:27;;;;;;;12.20;6.17;;;;;;;17.35;58.46;99410.84;4994611;28;20187;-85
2022/07/14 03:34:53;;;;;;;13.10;6.37;;;;;;;17.27;57.82;99379.16;4994268;28;20592;-85
2022/07/14 03:37:18;;;;;;;11.57;6.23;;;;;;;15.06;57.56;99009.81;4996823;28;20167;-85
2022/07/14 03:39:44;;;;;;;10.10;5.83;;;;;;;17.17;57.51;99361.94;4995743;28;20361;-86
2022/07/14 03:42:09;;;;;;;11.57;6.43;;;;;;;16.54;57.38;99206.59;4977145;28;20557;-85
2022/07/14 03:44:35;;;;;;;13.63;6.43;;;;;;;18.43;58.04;99523.59;4995175;28;20187;-86
2022/07/14 03:47:00;;;;;;;8.00;5.13;;;;;;;18.20;57.04;99472.00;4995695;28;20305;-85
2022/07/14 03:49:26;;;;;;;9.23;4.87;;;;;;;16.79;57.02;99225.75;4993206;28;20198;-83
2022/07/14 03:51:51;;;;;;;9.30;4.80;;;;;;;18.50;56.65;99492.09;4993539;28;20174;-85
2022/07/14 03:54:16;;;;;;;13.03;4.70;;;;;;;17.63;56.29;99331.97;4993544;28;20164;-84
2022/07/14 03:56:42;;;;;;;14.33;5.90;;;;;;;18.66;56.83;99496.56;5001054;28;20236;-85
2022/07/14 03:59:10;;;;;;;7.97;4.50;;;;;;;17.22;56.65;99289.56;5002516;28;20302;-85
2022/07/14 04:01:37;;;;;;;9.60;4.10;;;;;;;17.46;56.53;99330.88;5003208;28;20182;-85
2022/07/14 04:04:03;;;;;;;8.40;4.77;;;;;;;17.31;57.39;99327.19;4999064;28;20200;-84
2022/07/14 04:06:29;;;;;;;6.27;3.87;;;;;;;18.47;57.53;99545.84;5010159;28;20597;-84
2022/07/14 04:08:54;;;;;;;5.87;4.20;;;;;;;17.27;56.90;99304.97;5012047;28;20166;-84
2022/07/14 04:11:19;;;;;;;5.13;3.80;;;;;;;19.24;56.79;99618.78;4994289;28;20704;-84
2022/07/14 04:13:45;;;;;;;8.67;4.17;;;;;;;17.61;56.60;99350.72;4973304;28;20288;-86
2022/07/14 04:16:11;;;;;;;4.77;3.80;;;;;;;17.66;56.34;99357.63;4993551;28;20179;-84
2022/07/14 04:18:36;;;;;;;9.67;3.87;;;;;;;17.90;56.16;99349.44;4975121;28;20191;-84
2022/07/14 04:21:02;;;;;;;5.30;3.80;;;;;;;18.84;55.70;99525.03;4992982;28;20175;-83
2022/07/14 04:23:28;;;;;;;5.47;3.77;;;;;;;17.19;56.25;99230.66;5008283;28;20186;-83
2022/07/14 04:25:53;;;;;;;9.10;3.63;;;;;;;17.17;55.61;99175.19;4998865;28;20175;-86
2022/07/14 04:28:19;;;;;;;3.90;3.50;;;;;;;19.67;56.07;99617.59;4993068;28;20543;-86
2022/07/14 04:30:44;;;;;;;9.40;4.10;;;;;;;16.83;55.46;99118.47;4993038;28;20214;-86
2022/07/14 04:33:10;;;;;;;7.53;3.50;;;;;;;19.95;55.75;99635.00;4987929;28;20242;-85
2022/07/14 04:35:36;;;;;;;7.13;3.50;;;;;;;17.79;57.14;99284.41;4965695;28;20226;-86
2022/07/14 04:38:02;;;;;;;6.37;3.40;;;;;;;18.23;57.54;99333.66;4992780;28;20609;-86
2022/07/14 04:40:27;;;;;;;4.97;3.27;;;;;;;17.29;57.21;99177.91;4994687;28;20214;-86
2022/07/14 04:42:53;;;;;;;8.07;3.30;;;;;;;19.59;57.34;99516.47;4975347;28;20179;-86
2022/07/14 04:45:20;;;;;;;4.87;3.20;;;;;;;16.96;57.40;99058.09;4992771;28;20218;-85
2022/07/14 04:47:45;;;;;;;6.53;3.63;;;;;;;20.46;57.90;99644.97;4991923;28;20231;-85
2022/07/14 04:52:54;;;;;;;7.53;3.50;;;;;;;18.92;55.88;99348.97;4997965;28;20219;-84
2022/07/14 04:55:20;;;;;;;6.97;3.37;;;;;;;20.12;55.05;99519.50;4985300;28;20227;-83
2022/07/14 04:57:45;;;;;;;7.70;2.90;;;;;;;18.24;53.49;99225.16;4996215;28;20198;-84
2022/07/14 05:00:12;;;;;;;5.50;3.23;;;;;;;20.97;52.64;99659.88;4993350;28;20197;-86
2022/07/14 05:02:38;;;;;;;4.70;3.00;;;;;;;21.04;52.94;99661.66;4993088;28;20270;-87
2022/07/14 05:05:03;;;;;;;5.73;3.10;;;;;;;20.31;51.29;99527.38;4975485;28;20261;-89
2022/07/14 05:07:29;;;;;;;5.03;2.83;;;;;;;18.88;50.44;99280.50;4992183;28;20651;-86
2022/07/14 05:09:55;;;;;;;5.57;3.40;;;;;;;20.30;50.80;99507.66;4991095;28;20705;-86
2022/07/14 05:12:20;;;;;;;5.43;3.83;;;;;;;20.76;50.56;99552.53;4991833;28;20179;-86
2022/07/14 05:14:46;;;;;;;5.80;3.70;;;;;;;19.55;49.67;99334.97;5007249;28;20314;-87
2022/07/14 05:17:13;;;;;;;5.60;3.20;;;;;;;19.71;48.34;99337.63;4992141;28;20190;-87
2022/07/14 05:19:39;;;;;;;6.77;3.60;;;;;;;21.49;49.15;99661.03;4974545;28;20237;-85
2022/07/14 05:22:04;;;;;;;8.20;3.60;;;;;;;21.29;48.74;99593.97;4992015;28;20254;-86
2022/07/14 05:24:30;;;;;;;5.67;3.30;;;;;;;21.93;47.89;99671.53;4990872;28;20205;-84
2022/07/14 05:26:58;;;;;;;8.80;3.50;;;;;;;18.76;47.91;99136.78;4992308;28;20171;-87
2022/07/14 05:29:23;;;;;;;8.73;3.10;;;;;;;21.02;47.89;99524.31;4991669;28;20654;-87
2022/07/14 05:31:48;;;;;;;6.20;3.27;;;;;;;21.94;47.51;99691.31;4992586;28;20167;-86
2022/07/14 05:34:14;;;;;;;6.47;2.90;;;;;;;20.06;47.21;99355.81;4975332;28;20175;-86
2022/07/14 05:36:39;;;;;;;6.87;2.97;;;;;;;19.48;47.03;99243.31;4993616;28;20211;-86
2022/07/14 05:39:05;;;;;;;3.17;2.87;;;;;;;21.44;47.23;99583.75;4993581;28;20191;-88
2022/07/14 05:41:30;;;;;;;3.37;2.80;;;;;;;21.81;46.80;99641.38;4993076;28;20159;-87
2022/07/14 05:43:56;;;;;;;3.57;2.80;;;;;;;20.14;46.67;99355.84;4994120;28;20210;-85
2022/07/14 05:46:21;;;;;;;6.00;2.90;;;;;;;19.37;46.30;99176.47;4974519;28;20231;-86
2022/07/14 05:48:46;;;;;;;5.87;3.03;;;;;;;20.03;46.58;99300.13;4991730;28;20191;-86
2022/07/14 05:51:14;;;;;;;4.03;3.20;;;;;;;21.82;46.17;99624.22;4992059;28;20257;-85
2022/07/14 05:53:42;;;;;;;5.80;3.00;;;;;;;22.31;45.78;99663.00;4973858;28;20187;-86
2022/07/14 05:56:08;;;;;;;5.23;3.17;;;;;;;22.19;45.96;99611.41;4992639;28;20263;-86
2022/07/14 05:58:35;;;;;;;5.90;3.07;;;;;;;21.98;45.62;99564.09;4992619;28;20196;-85
2022/07/14 06:01:01;;;;;;;7.87;3.60;;;;;;;22.86;45.84;99689.69;4992747;28;20163;-85
2022/07/14 06:03:26;;;;;;;4.10;3.13;;;;;;;19.80;45.32;99198.09;4972624;28;20272;-84
2022/07/14 06:05:52;;;;;;;4.90;3.20;;;;;;;21.41;45.44;99460.09;4990180;28;20167;-85
2022/07/14 06:08:18;;;;;;;4.00;2.80;;;;;;;21.34;44.84;99388.84;4992143;28;20206;-85
2022/07/14 06:10:43;;;;;;;3.60;3.20;;;;;;;20.94;44.77;99326.09;4994811;28;20233;-85
2022/07/14 06:13:09;;;;;;;6.43;3.30;;;;;;;20.04;44.47;99167.34;4984475;28;20214;-86
2022/07/14 06:15:35;;;;;;;5.93;3.37;;;;;;;20.00;45.17;99166.47;5000134;28;20215;-88
2022/07/14 06:18:00;;;;;;;4.37;3.37;;;;;;;19.78;44.17;99055.94;4996498;28;20171;-88
2022/07/14 06:20:26;;;;;;;6.00;3.20;;;;;;;21.31;44.35;99357.06;4996189;28;20242;-88
2022/07/14 06:22:51;;;;;;;4.47;3.17;;;;;;;22.38;45.27;99508.22;4995681;28;20172;-88
2022/07/14 06:25:17;;;;;;;4.87;3.00;;;;;;;23.35;44.59;99627.56;4995939;28;20179;-87
2022/07/14 06:27:42;;;;;;;4.33;3.10;;;;;;;22.95;43.48;99518.38;4996525;28;20160;-87
2022/07/14 06:30:12;;;;;;;5.77;3.10;;;;;;;21.97;43.24;99307.16;4995527;28;20171;-88
2022/07/14 06:32:41;;;;;;;6.77;3.13;;;;;;;22.84;42.90;99435.81;4972904;28;20198;-86
2022/07/14 06:35:08;;;;;;;10.60;3.40;;;;;;;24.42;42.94;99654.59;4992138;28;20203;-86
2022/07/14 06:37:37;;;;;;;6.53;3.00;;;;;;;24.36;43.14;99667.56;4990648;28;20187;-87
2022/07/14 06:40:04;;;;;;;4.97;2.97;;;;;;;21.58;43.02;99212.75;4977216;28;20203;-88
2022/07/14 06:42:29;;;;;;;5.40;3.00;;;;;;;23.59;42.77;99546.50;4994533;28;20258;-87
2022/07/14 06:44:55;;;;;;;6.60;2.90;;;;;;;22.71;42.94;99364.47;4973798;28;20707;-86
2022/07/14 06:47:20;;;;;;;7.77;3.10;;;;;;;22.98;42.16;99310.94;4976040;28;20226;-87
2022/07/14 06:49:46;;;;;;;4.93;2.70;;;;;;;22.41;41.24;99209.78;4975602;28;20620;-89
2022/07/14 06:52:11;;;;;;;5.43;3.07;;;;;;;24.44;41.77;99550.16;4975027;28;20184;-89
2022/07/14 06:54:38;;;;;;;7.23;2.90;;;;;;;23.88;40.85;99413.53;4989309;28;20664;-89
2022/07/14 06:57:03;;;;;;;8.30;2.90;;;;;;;24.59;39.82;99538.78;4975742;28;20194;-87
2022/07/14 06:59:29;;;;;;;4.93;2.70;;;;;;;23.53;40.63;99347.53;4994336;28;20207;-88
2022/07/14 07:01:54;;;;;;;5.40;2.90;;;;;;;22.96;40.76;99279.09;4995424;28;20164;-89
2022/07/14 07:04:20;;;;;;;7.00;3.07;;;;;;;21.52;40.36;98968.91;4974313;28;20183;-89
2022/07/14 07:06:45;;;;;;;4.67;2.70;;;;;;;24.33;40.01;99463.13;4975165;28;20176;-87
2022/07/14 07:09:12;;;;;;;4.60;2.37;;;;;;;25.09;39.91;99536.50;4975411;28;20197;-87
2022/07/14 07:11:38;;;;;;;4.17;2.70;;;;;;;23.88;39.59;99271.31;4975331;28;20176;-89
2022/07/14 07:14:04;;;;;;;4.83;2.70;;;;;;;25.97;39.37;99644.22;4975382;28;20623;-87
2022/07/14 07:16:29;;;;;;;5.50;2.50;;;;;;;25.44;38.71;99567.13;4994104;28;20167;-86
2022/07/14 07:18:55;;;;;;;4.93;2.70;;;;;;;24.33;40.33;99406.19;4994755;28;20195;-87
2022/07/14 07:21:20;;;;;;;6.33;2.90;;;;;;;25.52;39.14;99510.03;4994625;28;20230;-86
2022/07/14 07:23:47;;;;;;;6.37;3.07;;;;;;;25.42;38.69;99495.44;4993640;28;20171;-87
2022/07/14 07:26:13;;;;;;;6.37;2.80;;;;;;;26.15;39.27;99614.59;4994072;28;20167;-87
2022/07/14 07:28:39;;;;;;;4.87;2.70;;;;;;;26.42;38.46;99611.53;4993877;28;20221;-86
2022/07/14 07:31:05;;;;;;;5.53;2.70;;;;;;;25.52;38.88;99515.22;4994776;28;20167;-86
2022/07/14 07:33:30;;;;;;;3.87;2.50;;;;;;;25.13;37.89;99346.41;4994259;28;20172;-88
2022/07/14 07:35:57;;;;;;;8.57;2.60;;;;;;;25.97;37.84;99485.94;4993036;28;20621;-86
2022/07/14 07:38:23;;;;;;;7.30;3.00;;;;;;;27.54;36.96;99630.22;4997567;28;20546;-89
2022/07/14 07:40:49;;;;;;;7.38;2.58;;;;;;;26.10;36.42;99344.69;4977411;28;20183;-87
2022/07/14 07:43:15;;;;;;;4.95;2.40;;;;;;;25.38;35.91;99201.69;4994686;28;20178;-87
2022/07/14 07:45:40;;;;;;;3.80;2.45;;;;;;;27.76;35.73;99620.22;4994431;28;20176;-89
2022/07/14 07:48:06;;;;;;;3.22;2.20;;;;;;;27.50;35.87;99541.00;4977679;28;20203;-89
2022/07/14 07:50:33;;;;;;;4.00;2.58;;;;;;;26.94;35.37;99414.84;4973095;28;20234;-89
2022/07/14 07:53:01;;;;;;;4.18;2.35;;;;;;;27.86;35.53;99624.31;4976905;28;20244;-90
2022/07/14 07:55:29;;;;;;;3.47;2.55;;;;;;;25.77;34.36;99246.78;4977048;28;20192;-91
2022/07/14 07:57:55;;;;;;;4.95;2.47;;;;;;;25.31;34.23;99142.25;4995239;28;20181;-90
2022/07/14 08:00:27;;;;;;;4.68;2.42;;;;;;;27.15;34.49;99434.28;4994763;28;20192;-92
2022/07/14 08:02:53;;;;;;;4.68;2.30;;;;;;;28.35;33.67;99564.16;4999460;28;20633;-91
2022/07/14 08:05:22;;;;;;;4.70;2.25;;;;;;;28.22;34.18;99601.78;4991498;28;20746;-88
2022/07/14 08:07:53;;;;;;;7.63;2.42;;;;;;;27.88;33.40;99449.00;4966276;28;20220;-88
2022/07/14 08:10:26;;;;;;;3.70;2.50;;;;;;;28.64;32.23;99515.63;5002420;28;20186;-89
2022/07/14 08:12:54;;;;;;;4.45;2.92;;;;;;;27.01;31.52;99166.06;4987746;28;20187;-87
2022/07/14 08:15:24;;;;;;;5.93;3.00;;;;;;;29.46;31.22;99601.09;4972263;28;20236;-90
2022/07/14 08:17:50;;;;;;;5.03;2.53;;;;;;;26.15;33.11;99210.53;4984111;28;20258;-89
2022/07/14 08:20:17;;;;;;;7.32;2.50;;;;;;;27.96;32.49;99441.84;4974946;28;20240;-89
2022/07/14 08:22:42;;;;;;;5.60;2.45;;;;;;;25.61;31.30;99012.88;4975373;28;20177;-89
2022/07/14 08:25:10;;;;;;;2.50;2.30;;;;;;;28.34;31.16;99430.47;4992335;28;20268;-88
2022/07/14 08:27:35;;;;;;;3.88;2.70;;;;;;;26.55;31.35;99124.78;4997170;28;20679;-87
2022/07/14 08:30:01;;;;;;;5.45;2.45;;;;;;;28.30;31.36;99397.56;4997051;28;20201;-88
2022/07/14 08:32:41;;;;;;;5.47;2.58;;;;;;;29.37;31.30;99564.81;4978004;28;20183;-88
2022/07/14 08:35:09;;;;;;;3.65;2.17;;;;;;;27.78;30.33;99223.75;4995395;28;20553;-90
2022/07/14 08:37:36;;;;;;;4.82;2.70;;;;;;;27.38;31.15;99104.38;4995586;28;20171;-88
2022/07/14 08:40:04;;;;;;;4.13;2.47;;;;;;;27.61;29.95;99181.75;4977414;28;20206;-88
2022/07/14 08:42:29;;;;;;;4.10;2.40;;;;;;;29.11;30.42;99479.50;4994023;28;20668;-88
2022/07/14 08:44:55;;;;;;;3.92;2.53;;;;;;;27.28;30.43;99199.09;4993068;28;20192;-88
2022/07/14 08:47:21;;;;;;;2.58;2.28;;;;;;;27.99;29.48;99233.53;4994116;28;20254;-89
2022/07/14 08:49:47;;;;;;;4.72;2.50;;;;;;;27.45;31.48;99196.94;4993072;28;20269;-88
2022/07/14 08:52:17;;;;;;;4.78;2.40;;;;;;;26.94;30.78;99068.38;4975264;28;20180;-89
2022/07/14 08:54:45;;;;;;;5.03;2.30;;;;;;;28.76;30.41;99397.13;4977476;28;20154;-89
2022/07/14 08:57:11;;;;;;;5.82;2.75;;;;;;;27.50;30.36;99122.25;4986014;28;20160;-88
2022/07/14 08:59:38;;;;;;;6.88;2.80;;;;;;;28.49;30.07;99242.47;4984760;28;20239;-90
2022/07/14 09:02:04;;;;;;;6.00;2.42;;;;;;;28.32;29.96;99384.53;4993966;28;20171;-89
2022/07/14 09:04:30;;;;;;;5.50;2.10;;;;;;;29.41;29.14;99482.97;5014401;28;20178;-90
2022/07/14 09:06:55;;;;;;;3.55;2.03;;;;;;;27.69;28.71;99165.94;5019069;28;20695;-89
2022/07/14 09:09:30;;;;;;;2.85;2.00;;;;;;;28.65;28.73;99402.66;5006605;28;20234;-88
2022/07/14 09:12:04;;;;;;;3.38;2.13;;;;;;;29.00;28.85;99413.78;4996605;28;20675;-88
2022/07/14 09:15:44;;;;;;;2.90;1.90;;;;;;;25.54;28.97;98904.16;4987113;28;20231;-89
2022/07/14 09:17:22;;;;;;;2.90;2.22;;;;;;;29.54;28.67;99456.44;5000920;28;20164;-89
2022/07/14 09:20:08;;;;;;;3.33;2.10;;;;;;;29.47;28.05;99363.59;4982797;28;20282;-90
2022/07/14 09:22:36;;;;;;;3.40;2.00;;;;;;;28.05;27.92;99149.25;4972852;28;20179;-89
2022/07/14 09:25:05;;;;;;;4.43;2.20;;;;;;;28.96;27.92;99271.38;4973024;28;20171;-90
2022/07/14 09:27:32;;;;;;;3.45;2.00;;;;;;;29.95;27.66;99341.94;4974123;28;20204;-89
2022/07/14 09:29:57;;;;;;;3.70;2.10;;;;;;;29.56;28.08;99358.06;4974086;28;20174;-88
2022/07/14 09:32:42;;;;;;;4.78;2.25;;;;;;;30.53;27.93;99565.44;4987678;28;20633;-89
2022/07/14 09:35:08;;;;;;;6.13;2.20;;;;;;;28.36;28.44;99162.16;4993359;28;20611;-89
2022/07/14 09:37:37;;;;;;;3.75;2.15;;;;;;;29.61;28.10;99298.72;4993687;28;20174;-90
2022/07/14 09:40:04;;;;;;;2.97;2.08;;;;;;;28.91;27.09;99145.56;4994259;28;20285;-90
2022/07/14 09:42:53;;;;;;;5.45;2.28;;;;;;;31.59;26.93;99561.59;4974832;28;20244;-89
2022/07/14 09:45:54;;;;;;;7.55;2.15;;;;;;;31.33;26.57;99531.16;4973067;28;20173;-88
2022/07/14 09:48:20;;;;;;;4.70;2.30;;;;;;;29.80;27.07;99258.03;4939092;29;20223;-89
2022/07/14 09:50:48;;;;;;;5.90;2.60;;;;;;;31.58;27.52;99555.50;4942712;29;20243;-90
2022/07/14 09:53:20;;;;;;;3.47;2.10;;;;;;;31.30;27.22;99546.97;4950630;29;20238;-89
2022/07/14 09:56:03;;;;;;;5.57;2.30;;;;;;;30.54;26.54;99382.47;4932135;29;20173;-89
2022/07/14 09:58:51;;;;;;;3.35;2.00;;;;;;;31.17;27.30;99540.50;4940944;29;20600;-92
2022/07/14 10:01:19;;;;;;;2.33;2.13;;;;;;;28.57;27.87;99131.03;4926940;29;20245;-90
2022/07/14 10:03:47;;;;;;;3.03;2.05;;;;;;;29.89;27.22;99250.81;4943702;29;20200;-86
2022/07/14 10:06:14;;;;;;;4.88;2.22;;;;;;;31.65;27.45;99481.00;4952495;29;20258;-87
2022/07/14 10:08:46;;;;;;;5.47;2.28;;;;;;;32.13;27.02;99500.88;4934642;29;20236;-86
2022/07/14 10:11:12;;;;;;;4.93;2.20;;;;;;;30.24;26.50;99198.09;4935005;29;20193;-88
2022/07/14 10:13:40;;;;;;;2.80;2.10;;;;;;;30.91;26.57;99361.81;4937724;29;20703;-86
2022/07/14 10:16:06;;;;;;;3.17;2.15;;;;;;;30.80;26.47;99352.69;4945804;28;20372;-87
2022/07/14 10:18:32;;;;;;;3.72;2.00;;;;;;;30.04;27.35;99292.00;4955046;29;20233;-89
2022/07/14 10:20:59;;;;;;;3.50;1.80;;;;;;;30.96;27.12;99448.81;4956874;29;20212;-89
2022/07/14 10:23:26;;;;;;;2.92;2.00;;;;;;;29.98;27.09;99272.19;4945818;28;20202;-87
2022/07/14 10:25:54;;;;;;;3.72;2.10;;;;;;;31.41;27.35;99513.38;4975226;28;20186;-86
2022/07/14 10:28:21;;;;;;;2.22;2.00;;;;;;;29.63;26.99;99286.50;4979603;28;20192;-87
2022/07/14 10:30:58;;;;;;;5.75;2.20;;;;;;;31.31;27.46;99522.50;4995433;28;20170;-86
2022/07/14 10:33:38;;;;;;;2.50;2.20;;;;;;;30.22;27.21;99357.47;4994503;28;20190;-86
2022/07/14 10:36:15;;;;;;;3.53;2.13;;;;;;;31.56;27.03;99517.19;4995002;28;20182;-87
2022/07/14 10:38:57;;;;;;;2.90;2.35;;;;;;;31.52;27.02;99506.00;4995546;28;20205;-85
2022/07/14 10:41:53;;;;;;;2.20;1.95;;;;;;;30.96;28.14;99508.97;4995885;28;20677;-87
2022/07/14 10:44:22;;;;;;;5.43;2.40;;;;;;;31.29;27.10;99503.38;4976754;28;20216;-88
2022/07/14 10:46:51;;;;;;;2.38;2.17;;;;;;;30.43;27.89;99405.53;4994909;28;20229;-88
2022/07/14 10:49:17;;;;;;;5.88;2.40;;;;;;;31.24;27.62;99503.56;4994723;28;20175;-86
2022/07/14 10:51:52;;;;;;;4.30;2.58;;;;;;;31.35;27.39;99480.44;4995140;28;20174;-86
2022/07/14 10:54:26;;;;;;;2.95;2.00;;;;;;;31.58;26.61;99494.41;4995094;28;20627;-87
2022/07/14 10:57:11;;;;;;;3.85;2.28;;;;;;;29.58;27.37;99241.47;4995042;28;20176;-85
2022/07/14 10:59:37;;;;;;;4.03;2.50;;;;;;;30.11;27.82;99362.25;4994974;28;20672;-87
2022/07/14 11:02:31;;;;;;;2.28;2.08;;;;;;;30.39;27.70;99425.69;4994700;28;20228;-86
2022/07/14 11:04:57;;;;;;;4.05;1.95;;;;;;;31.10;27.64;99486.69;4914839;29;20334;-87
2022/07/14 11:07:41;;;;;;;4.68;2.10;;;;;;;31.28;27.92;99480.75;4915726;29;20689;-87
2022/07/14 11:10:18;;;;;;;8.50;2.63;;;;;;;31.18;27.96;99475.00;4904373;29;20205;-88
2022/07/14 11:13:02;;;;;;;2.97;2.10;;;;;;;31.29;28.08;99482.44;4915403;29;20315;-87
2022/07/14 11:16:06;;;;;;;5.13;2.20;;;;;;;30.37;27.89;99375.25;4904111;29;20610;-87
2022/07/14 11:18:37;;;;;;;3.88;2.20;;;;;;;30.68;28.79;99474.31;4880029;29;20745;-87
2022/07/14 11:21:12;;;;;;;3.30;2.20;;;;;;;30.82;28.67;99465.94;4865089;29;20182;-88
2022/07/14 11:23:46;;;;;;;4.82;2.00;;;;;;;30.43;27.72;99332.38;4878248;29;20200;-88
2022/07/14 11:26:34;;;;;;;6.40;2.20;;;;;;;31.56;28.08;99465.69;4878194;29;20209;-87
2022/07/14 11:29:02;;;;;;;2.35;2.00;;;;;;;31.99;27.38;99470.00;4891989;29;20190;-88
2022/07/14 11:31:42;;;;;;;2.83;2.20;;;;;;;32.16;27.07;99477.19;4899983;29;20228;-87
2022/07/14 11:37:04;;;;;;;3.40;2.30;;;;;;;31.05;27.13;99335.16;4878646;29;20193;-87
2022/07/14 11:39:37;;;;;;;2.42;2.05;;;;;;;29.94;26.96;99087.00;4867922;29;20215;-87
2022/07/14 11:42:12;;;;;;;4.95;1.90;;;;;;;32.25;26.25;99346.59;4920164;29;20364;-85
2022/07/14 11:44:39;;;;;;;6.63;2.53;;;;;;;33.79;25.79;99462.56;4952747;29;20580;-92